sensor_id;sensor_type;location;lat;lon;timestamp;P1;P2;P0
49570;PMS7003;36970;39.352;20.286;2023-05-17T00:07:00;13.00;12.67;8.00
49570;PMS7003;36970;39.352;20.286;2023-05-17T00:37:02;17.67;15.33;12.00
49570;PMS7003;36970;39.352;20.286;2023-05-17T01:07:04;17.67;14.67;10.33
49570;PMS7003;36970;39.352;20.286;2023-05-17T01:37:07;17.33;14.67;9.00
49570;PMS7003;36970;39.352;20.286;2023-05-17T02:07:09;13.00;12.00;6.67
49570;PMS7003;36970;39.352;20.286;2023-05-17T02:37:11;16.33;15.33;10.33
49570;PMS7003;36970;39.352;20.286;2023-05-17T03:07:13;15.33;12.33;8.33
49570;PMS7003;36970;39.352;20.286;2023-05-17T03:37:17;15.33;13.33;9.00
49570;PMS7003;36970;39.352;20.286;2023-05-17T04:07:20;13.00;12.33;9.33
49570;PMS7003;36970;39.352;20.286;2023-05-17T04:37:22;19.67;18.00;12.33
49570;PMS7003;36970;39.352;20.286;2023-05-17T05:07:28;12.67;11.67;7.00
49570;PMS7003;36970;39.352;20.286;2023-05-17T05:37:30;12.67;12.67;9.33
49570;PMS7003;36970;39.352;20.286;2023-05-17T06:07:32;12.67;11.67;7.67
49570;PMS7003;36970;39.352;20.286;2023-05-17T06:37:34;11.67;11.00;7.00
49570;PMS7003;36970;39.352;20.286;2023-05-17T07:07:36;11.00;11.00;8.00
49570;PMS7003;36970;39.352;20.286;2023-05-17T07:37:38;10.00;9.00;5.67
49570;PMS7003;36970;39.352;20.286;2023-05-17T08:07:40;9.33;9.33;5.00
49570;PMS7003;36970;39.352;20.286;2023-05-17T08:37:43;8.00;7.00;5.67
49570;PMS7003;36970;39.352;20.286;2023-05-17T09:07:47;9.67;8.67;6.00
49570;PMS7003;36970;39.352;20.286;2023-05-17T09:37:49;10.00;10.00;6.67
49570;PMS7003;36970;39.352;20.286;2023-05-17T10:07:51;7.67;7.67;5.67
49570;PMS7003;36970;39.352;20.286;2023-05-17T10:37:56;4.00;3.00;1.00
49570;PMS7003;36970;39.352;20.286;2023-05-17T11:38:14;11.00;9.67;5.33
49570;PMS7003;36970;39.352;20.286;2023-05-17T12:08:17;5.33;3.67;3.33
49570;PMS7003;36970;39.352;20.286;2023-05-17T12:38:19;3.67;3.67;2.67
49570;PMS7003;36970;39.352;20.286;2023-05-17T13:08:21;2.00;2.00;1.00
49570;PMS7003;36970;39.352;20.286;2023-05-17T13:38:23;4.33;3.67;2.33
49570;PMS7003;36970;39.352;20.286;2023-05-17T14:08:25;9.33;9.00;6.00
49570;PMS7003;36970;39.352;20.286;2023-05-17T14:38:27;16.00;12.67;8.00
49570;PMS7003;36970;39.352;20.286;2023-05-17T15:08:29;11.67;10.67;8.00
49570;PMS7003;36970;39.352;20.286;2023-05-17T15:38:31;12.00;11.00;7.00
49570;PMS7003;36970;39.352;20.286;2023-05-17T16:08:33;11.67;11.67;8.00
49570;PMS7003;36970;39.352;20.286;2023-05-17T16:38:35;14.67;13.67;9.33
49570;PMS7003;36970;39.352;20.286;2023-05-17T17:08:37;13.67;12.00;10.00
49570;PMS7003;36970;39.352;20.286;2023-05-17T17:38:39;11.67;11.67;10.67
49570;PMS7003;36970;39.352;20.286;2023-05-17T18:08:41;13.67;13.33;9.67
49570;PMS7003;36970;39.352;20.286;2023-05-17T18:38:44;13.33;12.00;9.00
49570;PMS7003;36970;39.352;20.286;2023-05-17T19:08:47;17.00;14.00;8.33
49570;PMS7003;36970;39.352;20.286;2023-05-17T19:38:49;15.33;13.67;10.33
49570;PMS7003;36970;39.352;20.286;2023-05-17T20:08:51;11.67;11.67;9.00
49570;PMS7003;36970;39.352;20.286;2023-05-17T20:38:53;13.33;12.67;8.67
49570;PMS7003;36970;39.352;20.286;2023-05-17T21:08:55;13.33;11.67;9.00
49570;PMS7003;36970;39.352;20.286;2023-05-17T21:38:57;11.00;10.67;8.33
49570;PMS7003;36970;39.352;20.286;2023-05-17T22:08:59;13.33;13.33;9.67
49570;PMS7003;36970;39.352;20.286;2023-05-17T22:39:01;12.00;12.00;9.33
49570;PMS7003;36970;39.352;20.286;2023-05-17T23:09:04;16.33;13.00;9.00
49570;PMS7003;36970;39.352;20.286;2023-05-17T23:39:06;14.67;14.33;9.00
